createdAt,value
2022-08-05T00:02:07.674Z,25.57
2022-08-05T00:06:03.030Z,25.65
2022-08-05T00:08:37.594Z,25.66
2022-08-05T00:11:48.499Z,25.67
2022-08-05T00:14:57.728Z,25.60
2022-08-05T00:18:02.641Z,25.57
2022-08-05T00:21:06.494Z,25.52
2022-08-05T00:24:11.047Z,25.40
2022-08-05T00:27:18.599Z,25.42
2022-08-05T00:30:21.323Z,25.45
2022-08-05T00:34:55.858Z,25.43
2022-08-05T00:37:10.761Z,25.48
2022-08-05T00:40:17.605Z,25.34
2022-08-05T00:43:31.509Z,25.34
2022-08-05T00:46:54.065Z,25.25
2022-08-05T00:50:05.197Z,25.19
2022-08-05T00:53:09.865Z,25.12
2022-08-05T00:56:31.090Z,25.05
2022-08-05T00:59:34.554Z,25.07
2022-08-05T01:02:47.066Z,24.80
2022-08-05T01:05:54.810Z,24.76
2022-08-05T01:08:57.660Z,24.75
2022-08-05T01:12:09.368Z,24.71
2022-08-05T01:15:35.267Z,24.58
2022-08-05T01:18:43.191Z,24.49
2022-08-05T01:21:55.450Z,24.49
2022-08-05T01:25:40.907Z,24.51
2022-08-05T01:28:46.047Z,24.47
2022-08-05T01:31:52.659Z,24.41
2022-08-05T01:34:59.835Z,24.44
2022-08-05T01:38:04.194Z,24.38
2022-08-05T01:41:07.873Z,24.31
2022-08-05T01:44:12.179Z,24.17
2022-08-05T01:47:21.177Z,24.12
2022-08-05T01:50:28.753Z,24.13
2022-08-05T01:53:57.016Z,24.07
2022-08-05T01:58:12.657Z,24.07
2022-08-05T02:00:30.077Z,24.08
2022-08-05T02:03:39.001Z,24.09
2022-08-05T02:06:42.553Z,23.97
2022-08-05T02:09:47.921Z,23.94
2022-08-05T02:13:04.809Z,23.95
2022-08-05T02:16:27.547Z,23.94
2022-08-05T02:19:41.387Z,23.87
2022-08-05T02:22:59.796Z,23.93
2022-08-05T02:26:06.121Z,23.88
2022-08-05T02:29:21.590Z,23.92
2022-08-05T02:32:31.952Z,23.86
2022-08-05T02:35:37.659Z,23.81
2022-08-05T02:38:43.336Z,23.72
2022-08-05T02:41:58.049Z,23.69
2022-08-05T02:45:05.019Z,23.65
2022-08-05T02:48:12.562Z,23.62
2022-08-05T02:51:16.598Z,23.61
2022-08-05T02:54:36.414Z,23.53
2022-08-05T02:58:09.384Z,23.50
2022-08-05T03:01:03.659Z,23.48
2022-08-05T03:04:14.063Z,23.47
2022-08-05T03:08:00.669Z,23.44
2022-08-05T03:11:55.419Z,23.38
2022-08-05T03:14:08.031Z,23.32
2022-08-05T03:17:10.534Z,23.30
2022-08-05T03:20:13.632Z,23.33
2022-08-05T03:23:16.560Z,23.37
2022-08-05T03:26:30.400Z,23.39
2022-08-05T03:29:45.959Z,23.37
2022-08-05T03:33:02.010Z,23.32
2022-08-05T03:36:06.618Z,23.22
2022-08-05T03:39:20.074Z,23.22
2022-08-05T03:42:32.346Z,23.28
2022-08-05T03:45:58.365Z,23.33
2022-08-05T03:49:02.088Z,23.31
2022-08-05T03:52:38.841Z,23.35
2022-08-05T03:56:04.182Z,23.37
2022-08-05T03:59:02.877Z,23.39
2022-08-05T04:02:06.422Z,23.44
2022-08-05T04:05:11.735Z,23.49
2022-08-05T04:08:30.421Z,23.53
2022-08-05T04:11:50.400Z,23.66
2022-08-05T04:14:57.745Z,23.59
2022-08-05T04:18:07.206Z,23.58
2022-08-05T04:21:12.011Z,23.65
2022-08-05T04:24:28.228Z,23.88
2022-08-05T04:27:41.934Z,23.89
2022-08-05T04:30:54.270Z,23.87
2022-08-05T04:34:31.523Z,23.90
2022-08-05T04:37:19.335Z,23.97
2022-08-05T04:40:21.837Z,24.05
2022-08-05T04:43:24.382Z,24.12
2022-08-05T04:46:28.713Z,24.20
2022-08-05T04:49:38.781Z,24.26
2022-08-05T04:52:53.443Z,24.45
2022-08-05T04:56:15.476Z,24.45
2022-08-05T04:59:24.344Z,24.51
2022-08-05T05:02:41.930Z,24.59
2022-08-05T05:06:40.613Z,24.74
2022-08-05T05:09:08.458Z,24.90
2022-08-05T05:12:10.855Z,24.97
2022-08-05T05:15:17.491Z,25.11
2022-08-05T05:18:36.678Z,25.25
2022-08-05T05:21:39.482Z,25.39
2022-08-05T05:24:57.669Z,25.53
2022-08-05T05:28:00.883Z,25.53
2022-08-05T05:31:03.268Z,25.56
2022-08-05T05:34:09.648Z,25.53
2022-08-05T05:37:15.666Z,25.74
2022-08-05T05:40:20.705Z,25.94
2022-08-05T05:43:58.117Z,26.37
2022-08-05T05:46:51.294Z,26.63
2022-08-05T05:50:01.247Z,26.60
2022-08-05T05:53:21.399Z,26.53
2022-08-05T05:56:32.470Z,26.59
2022-08-05T05:59:40.366Z,26.75
2022-08-05T06:02:43.323Z,27.05
2022-08-05T06:05:46.037Z,27.28
2022-08-05T06:08:56.726Z,27.40
2022-08-05T06:12:02.506Z,27.52
2022-08-05T06:15:08.132Z,27.63
2022-08-05T06:18:10.965Z,27.74
2022-08-05T06:21:18.455Z,27.73
2022-08-05T06:24:25.786Z,27.80
2022-08-05T06:28:11.256Z,27.95
2022-08-05T06:30:52.514Z,27.89
2022-08-05T06:34:06.889Z,28.05
2022-08-05T06:37:12.428Z,28.24
2022-08-05T06:40:18.539Z,28.32
2022-08-05T06:43:57.440Z,28.43
2022-08-05T06:46:46.203Z,28.65
2022-08-05T06:50:00.043Z,28.78
2022-08-05T06:53:11.640Z,28.90
2022-08-05T06:56:26.686Z,29.05
2022-08-05T06:59:29.470Z,29.21
2022-08-05T07:02:45.773Z,29.23
2022-08-05T07:05:48.142Z,29.43
2022-08-05T07:08:54.994Z,29.65
2022-08-05T07:12:00.461Z,29.99
2022-08-05T07:15:34.561Z,30.25
2022-08-05T07:18:47.929Z,30.50
2022-08-05T07:21:59.881Z,30.61
2022-08-05T07:25:22.111Z,30.59
2022-08-05T07:28:27.564Z,30.68
2022-08-05T07:31:40.883Z,30.72
2022-08-05T07:34:58.004Z,30.74
2022-08-05T07:38:01.110Z,30.92
2022-08-05T07:42:08.442Z,31.17
2022-08-05T07:44:31.569Z,31.22
2022-08-05T07:47:42.336Z,31.21
2022-08-05T07:50:45.335Z,31.32
2022-08-05T07:53:50.253Z,31.43
2022-08-05T07:57:01.950Z,31.63
2022-08-05T08:00:17.597Z,31.68
2022-08-05T08:03:21.568Z,31.69
2022-08-05T08:06:24.109Z,31.77
2022-08-05T08:09:30.995Z,31.77
2022-08-05T08:12:49.365Z,31.69
2022-08-05T08:16:35.038Z,31.68
2022-08-05T08:20:10.058Z,31.93
2022-08-05T08:22:37.588Z,32.20
2022-08-05T08:25:59.747Z,32.38
2022-08-05T08:29:29.479Z,32.57
2022-08-05T08:32:28.110Z,32.58
2022-08-05T08:35:35.163Z,32.67
2022-08-05T08:38:44.047Z,32.57
2022-08-05T08:41:59.823Z,32.67
2022-08-05T08:45:23.048Z,32.69
2022-08-05T08:48:41.599Z,32.81
2022-08-05T08:52:03.741Z,32.90
2022-08-05T08:55:19.386Z,33.04
2022-08-05T08:58:43.019Z,33.26
2022-08-05T09:01:57.087Z,33.40
2022-08-05T09:05:17.569Z,33.43
2022-08-05T09:08:27.423Z,33.57
2022-08-05T09:11:53.370Z,33.95
2022-08-05T09:15:05.727Z,34.65
2022-08-05T09:18:09.679Z,35.53
2022-08-05T09:21:21.145Z,36.20
2022-08-05T09:24:38.611Z,36.23
2022-08-05T09:28:05.496Z,36.34
2022-08-05T09:31:22.593Z,35.96
2022-08-05T09:34:55.187Z,35.73
2022-08-05T09:38:12.893Z,35.49
2022-08-05T09:41:20.550Z,35.15
2022-08-05T09:44:42.327Z,35.32
2022-08-05T09:47:55.516Z,35.27
2022-08-05T09:51:01.462Z,35.42
2022-08-05T09:54:08.336Z,35.61
2022-08-05T09:57:28.137Z,35.81
2022-08-05T10:00:38.265Z,35.66
2022-08-05T10:03:58.794Z,35.83
2022-08-05T10:07:20.597Z,36.04
2022-08-05T10:10:44.119Z,35.87
2022-08-05T10:13:48.235Z,36.09
2022-08-05T10:16:53.518Z,35.97
2022-08-05T10:20:03.533Z,36.19
2022-08-05T10:23:55.374Z,36.16
2022-08-05T10:27:00.602Z,36.31
2022-08-05T10:30:41.912Z,36.61
2022-08-05T10:33:31.277Z,36.63
2022-08-05T10:36:40.500Z,36.84
2022-08-05T10:40:03.987Z,37.16
2022-08-05T10:43:36.582Z,37.37
2022-08-05T10:46:54.220Z,36.97
2022-08-05T10:50:33.237Z,36.89
2022-08-05T10:53:42.576Z,37.03
2022-08-05T10:56:53.150Z,37.01
2022-08-05T11:00:17.976Z,37.24
2022-08-05T11:03:24.551Z,36.97
2022-08-05T11:06:30.839Z,37.15
2022-08-05T11:09:46.243Z,37.10
2022-08-05T11:12:54.490Z,36.72
2022-08-05T11:16:22.139Z,36.68
2022-08-05T11:20:11.465Z,37.10
2022-08-05T11:24:04.102Z,37.08
2022-08-05T11:27:50.124Z,37.34
2022-08-05T11:30:58.240Z,37.38
2022-08-05T11:34:08.147Z,37.44
2022-08-05T11:38:28.186Z,37.53
2022-08-05T11:41:34.637Z,37.71
2022-08-05T11:44:53.379Z,37.98
2022-08-05T11:47:57.830Z,37.61
2022-08-05T11:51:02.155Z,37.46
2022-08-05T11:54:05.061Z,37.39
2022-08-05T11:57:25.089Z,37.44
2022-08-05T12:00:31.123Z,37.05
2022-08-05T12:04:06.313Z,37.10
2022-08-05T12:07:10.866Z,37.31
2022-08-05T12:10:19.541Z,37.29
2022-08-05T12:13:47.873Z,37.38
2022-08-05T12:16:47.306Z,37.27
2022-08-05T12:20:17.179Z,37.06
2022-08-05T12:23:15.209Z,36.76
2022-08-05T12:26:17.630Z,36.49
2022-08-05T12:29:25.320Z,36.58
2022-08-05T12:32:28.499Z,36.77
2022-08-05T12:35:37.213Z,36.80
2022-08-05T12:38:42.859Z,36.99
2022-08-05T12:41:45.808Z,37.02
2022-08-05T12:44:49.252Z,36.94
2022-08-05T12:48:01.707Z,36.91
2022-08-05T12:51:21.734Z,36.88
2022-08-05T12:54:41.815Z,37.09
2022-08-05T12:58:49.881Z,37.22
2022-08-05T13:02:02.595Z,37.40
2022-08-05T13:04:32.514Z,37.32
2022-08-05T13:07:59.042Z,37.39
2022-08-05T13:11:02.078Z,37.58
2022-08-05T13:14:19.476Z,37.38
2022-08-05T13:17:32.033Z,37.36
2022-08-05T13:20:45.262Z,37.31
2022-08-05T13:23:50.892Z,36.97
2022-08-05T13:26:55.066Z,37.14
2022-08-05T13:29:59.459Z,37.37
2022-08-05T13:34:22.810Z,37.13
2022-08-05T13:36:44.048Z,37.03
2022-08-05T13:40:16.439Z,36.98
2022-08-05T13:43:12.201Z,36.79
2022-08-05T13:46:16.234Z,36.74
2022-08-05T13:49:18.806Z,36.61
2022-08-05T13:52:29.207Z,36.63
2022-08-05T13:55:41.809Z,36.86
2022-08-05T13:58:53.352Z,36.93
2022-08-05T14:02:00.059Z,37.01
2022-08-05T14:05:15.105Z,36.92
2022-08-05T14:08:27.863Z,37.12
2022-08-05T14:11:31.245Z,37.11
2022-08-05T14:14:33.896Z,37.03
2022-08-05T14:17:36.621Z,36.93
2022-08-05T14:20:38.965Z,36.92
2022-08-05T14:23:41.578Z,36.92
2022-08-05T14:27:02.080Z,36.86
2022-08-05T14:30:07.444Z,36.85
2022-08-05T14:33:23.993Z,36.71
2022-08-05T14:36:26.959Z,36.71
2022-08-05T14:39:29.469Z,36.78
2022-08-05T14:42:32.555Z,36.62
2022-08-05T14:45:35.037Z,36.88
2022-08-05T14:48:38.114Z,36.87
2022-08-05T14:51:42.855Z,36.89
2022-08-05T14:54:52.896Z,36.98
2022-08-05T14:57:56.481Z,36.76
2022-08-05T15:01:00.392Z,36.76
2022-08-05T15:04:06.562Z,36.72
2022-08-05T15:07:10.151Z,36.61
2022-08-05T15:10:33.050Z,36.68
2022-08-05T15:13:45.781Z,36.70
2022-08-05T15:16:49.039Z,36.68
2022-08-05T15:19:55.035Z,36.64
2022-08-05T15:23:04.127Z,36.66
2022-08-05T15:26:07.503Z,36.60
